Time;durP1;ratioP1;P1;durP2;ratioP2;P2;SDS_P1;SDS_P2;PMS_P1;PMS_P2;Temp;Humidity;BMP_temperature;BMP_pressure;BME280_temperature;BME280_humidity;BME280_pressure;Samples;Min_cycle;Max_cycle;Signal;HPM_P1;HPM_P2
2022/12/06 00:01:16;;;;;;;65.32;30.23;;;1.70;99.90;;;;;;5072316;28;20033;-83
2022/12/06 00:03:43;;;;;;;63.25;31.05;;;1.70;99.90;;;;;;5062074;28;20626;-83
2022/12/06 00:06:18;;;;;;;63.47;30.92;;;1.70;99.90;;;;;;5069021;28;20124;-84
2022/12/06 00:08:45;;;;;;;68.72;32.35;;;1.70;99.90;;;;;;5070385;28;20033;-84
2022/12/06 00:11:15;;;;;;;71.97;33.30;;;1.70;99.90;;;;;;5070846;28;20024;-83
2022/12/06 00:13:41;;;;;;;69.40;32.72;;;1.80;99.90;;;;;;5065244;28;20032;-84
2022/12/06 00:16:09;;;;;;;75.10;32.72;;;1.80;99.90;;;;;;5071797;28;20028;-84
2022/12/06 00:18:37;;;;;;;75.72;34.42;;;1.80;99.90;;;;;;5053290;28;20033;-84
2022/12/06 00:21:12;;;;;;;74.38;32.67;;;1.80;99.90;;;;;;5072517;28;20077;-84
2022/12/06 00:24:16;;;;;;;76.10;32.97;;;1.80;99.90;;;;;;5066855;28;20029;-84
2022/12/06 00:26:44;;;;;;;68.25;31.17;;;1.70;99.90;;;;;;5071872;28;20035;-84
2022/12/06 00:29:12;;;;;;;62.78;32.88;;;1.80;99.90;;;;;;5071399;28;20033;-84
2022/12/06 00:31:39;;;;;;;68.47;30.80;;;1.80;99.90;;;;;;5069136;28;20024;-84
2022/12/06 00:34:04;;;;;;;69.13;30.63;;;1.80;99.90;;;;;;5089280;28;20410;-84
2022/12/06 00:36:36;;;;;;;67.43;29.88;;;1.80;99.90;;;;;;5071623;28;20038;-84
2022/12/06 00:39:03;;;;;;;;;;;1.80;99.90;;;;;;5074271;28;20025;-84
2022/12/06 00:41:28;;;;;;;61.13;26.73;;;1.80;99.90;;;;;;5067416;28;19912;-84
2022/12/06 00:43:54;;;;;;;63.60;29.08;;;1.90;99.90;;;;;;5060414;28;20495;-83
2022/12/06 00:46:26;;;;;;;66.60;31.63;;;1.80;99.90;;;;;;5070750;28;20067;-84
2022/12/06 00:48:54;;;;;;;;;;;1.90;99.90;;;;;;5066057;28;20056;-84
2022/12/06 00:51:21;;;;;;;62.03;27.75;;;1.90;99.90;;;;;;5062770;28;19908;-83
2022/12/06 00:53:46;;;;;;;70.93;31.45;;;1.80;99.90;;;;;;5051249;28;20029;-84
2022/12/06 00:56:13;;;;;;;60.42;30.00;;;1.90;99.90;;;;;;5081234;28;20027;-84
2022/12/06 00:59:01;;;;;;;65.78;29.90;;;1.80;99.90;;;;;;5071408;28;20028;-84
2022/12/06 01:01:32;;;;;;;68.05;30.55;;;1.90;99.90;;;;;;5082769;28;20383;-84
2022/12/06 01:04:00;;;;;;;63.83;30.05;;;1.90;99.90;;;;;;5071703;28;20020;-84
2022/12/06 01:06:29;;;;;;;66.50;31.05;;;1.90;99.90;;;;;;5066232;28;20441;-84
2022/12/06 01:08:57;;;;;;;72.78;31.10;;;1.90;99.90;;;;;;5072080;28;20029;-85
2022/12/06 01:11:24;;;;;;;67.63;30.85;;;2.00;99.90;;;;;;5071604;28;20021;-86
2022/12/06 01:14:24;;;;;;;70.80;31.88;;;1.90;99.90;;;;;;5066371;28;20025;-86
2022/12/06 01:16:50;;;;;;;65.97;31.85;;;2.00;99.90;;;;;;5068774;28;20036;-86
2022/12/06 01:19:15;;;;;;;68.97;32.08;;;2.00;99.90;;;;;;5070610;28;20506;-86
2022/12/06 01:21:41;;;;;;;70.55;31.92;;;2.00;99.90;;;;;;5076752;28;20365;-84
2022/12/06 01:24:07;;;;;;;74.55;33.45;;;1.90;99.90;;;;;;5078686;28;20487;-84
2022/12/06 01:26:34;;;;;;;73.45;33.22;;;2.00;99.90;;;;;;5051094;28;20488;-84
2022/12/06 01:29:00;;;;;;;75.80;34.45;;;1.90;99.90;;;;;;5066613;28;20491;-84
2022/12/06 01:31:27;;;;;;;75.28;34.13;;;1.90;99.90;;;;;;5051171;28;20040;-83
2022/12/06 01:33:53;;;;;;;71.22;33.45;;;2.00;99.90;;;;;;5070870;28;20028;-84
2022/12/06 01:36:22;;;;;;;76.70;32.45;;;1.90;99.90;;;;;;5060289;28;20039;-83
2022/12/06 01:38:49;;;;;;;200.57;40.58;;;1.90;99.90;;;;;;5053886;28;20035;-84
2022/12/06 01:41:15;;;;;;;74.78;31.48;;;2.00;99.90;;;;;;5070290;28;20495;-84
2022/12/06 01:43:42;;;;;;;79.15;32.83;;;2.00;99.90;;;;;;5057209;28;20020;-84
2022/12/06 01:46:27;;;;;;;81.07;33.97;;;1.90;99.90;;;;;;5067974;28;20040;-84
2022/12/06 01:48:58;;;;;;;81.28;32.85;;;1.90;99.90;;;;;;5067774;28;20056;-84
2022/12/06 01:51:24;;;;;;;79.72;32.22;;;2.00;99.90;;;;;;5064241;28;20078;-83
2022/12/06 01:53:52;;;;;;;68.95;30.75;;;1.90;99.90;;;;;;5057919;28;20040;-84
2022/12/06 01:56:19;;;;;;;67.15;28.55;;;1.90;99.90;;;;;;5083064;28;20032;-84
2022/12/06 01:58:47;;;;;;;67.60;27.05;;;1.90;99.90;;;;;;5058359;28;20043;-83
2022/12/06 02:01:13;;;;;;;67.68;27.42;;;1.90;99.90;;;;;;5050513;28;20029;-83
2022/12/06 02:03:39;;;;;;;70.78;27.58;;;1.90;99.90;;;;;;5050218;28;20045;-84
2022/12/06 02:06:07;;;;;;;66.68;28.10;;;1.90;99.90;;;;;;5057253;28;20044;-86
2022/12/06 02:08:34;;;;;;;75.88;27.17;;;2.00;99.90;;;;;;5074516;28;20060;-86
2022/12/06 02:11:02;;;;;;;111.10;30.15;;;2.00;99.90;;;;;;5066239;28;20041;-86
2022/12/06 02:13:29;;;;;;;72.07;26.15;;;2.00;99.90;;;;;;5071744;28;20050;-87
2022/12/06 02:16:14;;;;;;;83.15;27.60;;;2.00;99.90;;;;;;5063634;28;20028;-86
2022/12/06 02:18:48;;;;;;;76.90;26.83;;;2.00;99.90;;;;;;5069499;28;20689;-86
2022/12/06 02:21:33;;;;;;;74.85;28.77;;;2.00;99.90;;;;;;5068116;28;20074;-86
2022/12/06 02:24:21;;;;;;;371.98;44.65;;;2.00;99.90;;;;;;5054827;28;20468;-86
2022/12/06 02:26:49;;;;;;;170.65;34.90;;;2.00;99.90;;;;;;5070184;28;20033;-86
2022/12/06 02:29:27;;;;;;;260.23;42.28;;;2.00;99.90;;;;;;5084305;28;20024;-86
2022/12/06 02:31:57;;;;;;;809.28;74.40;;;2.00;99.90;;;;;;5070121;28;20033;-84
2022/12/06 02:34:35;;;;;;;567.83;51.80;;;2.00;99.90;;;;;;5067438;28;20075;-83
2022/12/06 02:37:17;;;;;;;342.08;43.55;;;1.90;99.90;;;;;;5064689;28;21493;-83
2022/12/06 02:40:09;;;;;;;814.63;130.32;;;2.00;99.90;;;;;;5070234;28;20717;-83
2022/12/06 02:42:42;;;;;;;;;;;1.90;99.90;;;;;;5001743;28;20038;-84
2022/12/06 02:45:13;;;;;;;371.98;45.70;;;1.90;99.90;;;;;;5072376;28;19913;-84
2022/12/06 02:47:40;;;;;;;242.15;40.95;;;1.90;99.90;;;;;;5069434;28;20035;-84
2022/12/06 02:50:10;;;;;;;189.45;36.42;;;1.90;99.90;;;;;;5067834;28;20036;-84
2022/12/06 02:52:41;;;;;;;414.25;47.58;;;1.90;99.90;;;;;;5071243;28;20545;-84
2022/12/06 02:55:08;;;;;;;399.13;52.17;;;1.90;99.90;;;;;;5061782;28;20036;-83
2022/12/06 02:57:49;;;;;;;307.98;42.65;;;1.90;99.90;;;;;;5072481;28;20021;-83
2022/12/06 03:00:36;;;;;;;542.88;54.33;;;1.90;99.90;;;;;;5066615;28;20107;-84
2022/12/06 03:03:11;;;;;;;670.20;60.50;;;1.90;99.90;;;;;;5067044;28;20036;-84
2022/12/06 03:06:00;;;;;;;1194.45;102.25;;;1.90;99.90;;;;;;5068834;28;20028;-84
2022/12/06 03:08:46;;;;;;;168.70;30.77;;;1.80;99.90;;;;;;5072385;28;20052;-83
2022/12/06 03:11:12;;;;;;;419.80;49.55;;;1.80;99.90;;;;;;5038283;28;20060;-84
2022/12/06 03:13:47;;;;;;;268.75;37.22;;;1.80;99.90;;;;;;5047332;28;20021;-84
2022/12/06 03:16:21;;;;;;;174.65;30.60;;;1.90;99.90;;;;;;5054666;28;20024;-84
2022/12/06 03:19:20;;;;;;;113.78;31.15;;;1.90;99.90;;;;;;5049217;28;20033;-84
2022/12/06 03:22:06;;;;;;;288.65;39.20;;;1.90;99.90;;;;;;5071753;28;20636;-84
2022/12/06 03:24:36;;;;;;;202.35;33.53;;;2.00;99.90;;;;;;5062363;28;20692;-84
2022/12/06 03:27:32;;;;;;;565.60;53.25;;;2.00;99.90;;;;;;5072053;28;20427;-84
2022/12/06 03:30:02;;;;;;;306.00;37.50;;;1.90;99.90;;;;;;5063792;28;20039;-84
2022/12/06 03:32:32;;;;;;;132.57;30.10;;;1.90;99.90;;;;;;5070512;28;20037;-84
2022/12/06 03:35:03;;;;;;;115.43;29.20;;;1.90;99.90;;;;;;5064126;28;20040;-83
2022/12/06 03:37:30;;;;;;;;;;;1.90;99.90;;;;;;5071636;28;20043;-84
2022/12/06 03:40:23;;;;;;;86.35;28.17;;;1.90;99.90;;;;;;5069832;28;19969;-84
2022/12/06 03:42:49;;;;;;;144.20;29.98;;;1.90;99.90;;;;;;5069012;28;20029;-84
2022/12/06 03:45:16;;;;;;;335.83;39.85;;;1.90;99.90;;;;;;5071305;28;20139;-84
2022/12/06 03:47:44;;;;;;;227.70;35.95;;;2.00;99.90;;;;;;5068992;28;20495;-83
2022/12/06 03:50:16;;;;;;;127.78;29.40;;;2.00;99.90;;;;;;5063385;28;20028;-84
2022/12/06 03:52:42;;;;;;;59.45;26.17;;;2.00;99.90;;;;;;5071533;28;20037;-84
2022/12/06 03:55:08;;;;;;;62.40;25.50;;;1.90;99.90;;;;;;5057376;28;20028;-83
2022/12/06 03:57:34;;;;;;;71.93;26.77;;;2.00;99.90;;;;;;5066331;28;20036;-84
2022/12/06 04:00:00;;;;;;;57.35;23.77;;;1.90;99.90;;;;;;5071782;28;20384;-84
2022/12/06 04:02:25;;;;;;;64.00;25.65;;;2.00;99.90;;;;;;5065563;28;20036;-83
2022/12/06 04:04:51;;;;;;;163.48;31.00;;;2.00;99.90;;;;;;5016352;28;1345116;-84
2022/12/06 04:07:20;;;;;;;56.58;22.75;;;2.00;99.90;;;;;;5068253;28;20028;-83
2022/12/06 04:09:55;;;;;;;55.03;24.48;;;2.00;99.90;;;;;;5051161;28;20033;-84
2022/12/06 04:15:08;;;;;;;90.22;26.45;;;2.00;99.90;;;;;;5080686;28;20055;-84
2022/12/06 04:20:22;;;;;;;333.38;38.60;;;2.00;99.90;;;;;;5066737;28;20029;-83
2022/12/06 04:23:02;;;;;;;223.43;31.77;;;2.00;99.90;;;;;;5068654;28;20039;-84
2022/12/06 04:25:29;;;;;;;66.00;24.53;;;1.90;99.90;;;;;;5072657;28;20063;-84
2022/12/06 04:38:52;;;;;;;42.40;18.35;;;1.80;99.90;;;;;;5085332;28;20435;-84
2022/12/06 04:44:04;;;;;;;44.47;17.25;;;1.80;99.90;;;;;;5069114;28;20399;-84
2022/12/06 04:46:30;;;;;;;43.03;17.48;;;1.80;99.90;;;;;;5071325;28;20480;-84
2022/12/06 04:48:55;;;;;;;40.13;17.10;;;1.80;99.90;;;;;;5075712;28;20900;-84
2022/12/06 04:51:21;;;;;;;48.55;18.42;;;1.80;99.90;;;;;;5068398;28;20025;-84
2022/12/06 04:53:47;;;;;;;38.65;17.55;;;1.70;99.90;;;;;;5051131;28;20035;-84
2022/12/06 04:56:13;;;;;;;40.33;17.02;;;1.80;99.90;;;;;;5071236;28;20032;-83
2022/12/06 04:58:38;;;;;;;40.92;17.58;;;1.80;99.90;;;;;;5050149;28;20039;-83
2022/12/06 05:01:04;;;;;;;37.25;16.13;;;1.70;99.90;;;;;;5053656;28;20132;-84
2022/12/06 05:03:30;;;;;;;40.75;16.00;;;1.80;99.90;;;;;;5071746;28;20037;-83
2022/12/06 05:05:56;;;;;;;39.20;16.42;;;1.80;99.90;;;;;;5071029;28;20051;-84
2022/12/06 05:08:21;;;;;;;42.33;16.63;;;1.80;99.90;;;;;;5064049;28;20021;-84
2022/12/06 05:10:49;;;;;;;38.95;16.30;;;1.80;99.90;;;;;;5051820;28;20041;-83
2022/12/06 05:13:16;;;;;;;41.25;16.20;;;1.80;99.90;;;;;;5066216;28;20074;-84
2022/12/06 05:16:08;;;;;;;39.90;16.15;;;1.70;99.90;;;;;;5066491;28;20024;-83
2022/12/06 05:18:34;;;;;;;190.50;25.60;;;1.80;99.90;;;;;;5079097;28;20045;-84
2022/12/06 05:21:14;;;;;;;99.60;21.65;;;1.80;99.90;;;;;;5057935;28;20423;-83
2022/12/06 05:23:41;;;;;;;258.13;32.70;;;1.70;99.90;;;;;;5065446;28;20067;-84
2022/12/06 05:26:10;;;;;;;318.90;36.63;;;1.80;99.90;;;;;;5064434;28;20484;-84
2022/12/06 05:28:36;;;;;;;393.75;41.67;;;1.80;99.90;;;;;;5062261;28;20078;-84
2022/12/06 05:31:02;;;;;;;92.78;20.33;;;1.70;99.90;;;;;;5052544;28;20021;-84
2022/12/06 05:33:28;;;;;;;576.92;43.88;;;1.70;99.90;;;;;;5083431;28;20029;-84
2022/12/06 05:35:53;;;;;;;490.13;46.65;;;1.80;99.90;;;;;;5069759;28;20033;-84
2022/12/06 05:38:20;;;;;;;614.17;55.58;;;1.70;99.90;;;;;;5067271;28;20111;-84
2022/12/06 05:40:46;;;;;;;685.80;58.42;;;1.80;99.90;;;;;;5050815;28;20037;-83
2022/12/06 05:43:12;;;;;;;535.85;43.67;;;1.80;99.90;;;;;;5070497;28;20089;-84
2022/12/06 05:45:38;;;;;;;278.92;31.88;;;1.70;99.90;;;;;;5070369;28;20483;-86
2022/12/06 05:48:05;;;;;;;694.30;57.15;;;1.70;99.90;;;;;;5062753;28;20021;-84
2022/12/06 05:50:31;;;;;;;704.25;59.00;;;1.80;99.90;;;;;;5067734;28;20025;-84
2022/12/06 05:52:58;;;;;;;420.77;34.30;;;1.70;99.90;;;;;;5062377;28;20185;-84
2022/12/06 05:55:25;;;;;;;440.15;39.50;;;1.80;99.90;;;;;;5084210;28;20032;-84
2022/12/06 05:57:51;;;;;;;1004.05;77.45;;;1.70;99.90;;;;;;5070541;28;20127;-84
2022/12/06 06:00:19;;;;;;;906.88;68.38;;;1.70;99.90;;;;;;5054217;28;20036;-84
2022/12/06 06:02:45;;;;;;;849.38;54.97;;;1.70;99.90;;;;;;5066751;28;20479;-84
2022/12/06 06:05:12;;;;;;;954.72;62.38;;;1.70;99.90;;;;;;5078028;28;20028;-84
2022/12/06 06:07:38;;;;;;;1113.15;69.78;;;1.70;99.90;;;;;;5084639;28;20082;-84
2022/12/06 06:10:06;;;;;;;1223.30;82.55;;;1.70;99.90;;;;;;5052093;28;20028;-84
2022/12/06 06:12:31;;;;;;;1021.40;81.95;;;1.70;99.90;;;;;;5066871;28;20140;-84
2022/12/06 06:14:57;;;;;;;326.05;33.30;;;1.70;99.90;;;;;;5063170;28;20500;-84
2022/12/06 06:17:23;;;;;;;648.47;46.75;;;1.70;99.90;;;;;;5069034;28;20086;-84
2022/12/06 06:19:50;;;;;;;595.85;45.05;;;1.70;99.90;;;;;;5082369;28;20063;-84
2022/12/06 06:22:17;;;;;;;152.75;22.13;;;1.70;99.90;;;;;;5069876;28;20054;-85
2022/12/06 06:24:43;;;;;;;159.65;21.00;;;1.70;99.90;;;;;;5070227;28;20792;-86
2022/12/06 06:27:09;;;;;;;34.40;15.77;;;1.70;99.90;;;;;;5051238;28;20025;-85
2022/12/06 06:29:35;;;;;;;38.63;17.08;;;1.70;99.90;;;;;;5072545;28;20063;-85
2022/12/06 06:32:01;;;;;;;54.42;18.88;;;1.60;99.90;;;;;;5059030;28;20064;-85
2022/12/06 06:34:26;;;;;;;54.20;18.33;;;1.60;99.90;;;;;;5053108;28;20024;-85
2022/12/06 06:36:52;;;;;;;523.35;42.85;;;1.60;99.90;;;;;;5068311;28;20039;-85
2022/12/06 06:39:18;;;;;;;152.70;23.17;;;1.60;99.90;;;;;;5063786;28;20066;-85
2022/12/06 06:41:44;;;;;;;56.45;20.08;;;1.50;99.90;;;;;;5053053;28;20025;-85
2022/12/06 06:44:11;;;;;;;43.78;18.38;;;1.60;99.90;;;;;;5068710;28;20094;-85
2022/12/06 06:46:37;;;;;;;47.28;19.73;;;1.50;99.90;;;;;;5080148;28;20056;-85
2022/12/06 06:49:03;;;;;;;44.50;18.83;;;1.40;99.90;;;;;;5067788;28;20499;-85
2022/12/06 06:51:31;;;;;;;48.45;18.60;;;1.40;99.90;;;;;;5064269;28;20485;-84
2022/12/06 06:53:57;;;;;;;53.28;21.05;;;1.40;99.90;;;;;;5056380;28;20087;-85
2022/12/06 06:56:23;;;;;;;60.05;22.50;;;1.40;99.90;;;;;;5065662;28;20032;-85
2022/12/06 06:58:49;;;;;;;59.85;22.00;;;1.30;99.90;;;;;;5053227;28;20043;-85
2022/12/06 07:01:20;;;;;;;59.22;22.02;;;1.30;99.90;;;;;;5069700;28;20028;-85
2022/12/06 07:03:47;;;;;;;56.42;21.67;;;1.30;99.90;;;;;;5067416;28;20564;-85
2022/12/06 07:06:13;;;;;;;58.60;23.73;;;1.30;99.90;;;;;;5055447;28;20413;-85
2022/12/06 07:08:46;;;;;;;71.95;23.45;;;1.30;99.90;;;;;;5069798;28;20020;-87
2022/12/06 07:11:13;;;;;;;68.43;23.67;;;1.30;99.90;;;;;;5066323;28;20059;-87
2022/12/06 07:13:40;;;;;;;62.15;24.70;;;1.40;99.90;;;;;;5073695;28;20487;-87
2022/12/06 07:16:11;;;;;;;62.42;23.27;;;1.30;99.90;;;;;;5058305;28;20032;-87
2022/12/06 07:18:36;;;;;;;67.50;22.98;;;1.30;99.90;;;;;;5070858;28;20119;-87
2022/12/06 07:21:05;;;;;;;58.72;23.58;;;1.30;99.90;;;;;;5067180;28;20141;-87
2022/12/06 07:23:32;;;;;;;62.47;22.65;;;1.40;99.90;;;;;;5049450;28;20051;-87
2022/12/06 07:26:12;;;;;;;67.07;22.42;;;1.40;99.90;;;;;;5056804;28;20025;-87
2022/12/06 07:28:40;;;;;;;56.78;21.83;;;1.40;99.90;;;;;;5084067;28;20098;-87
2022/12/06 07:31:14;;;;;;;63.25;23.50;;;1.40;99.90;;;;;;5069110;28;20029;-87
2022/12/06 07:33:41;;;;;;;68.40;30.38;;;1.40;99.90;;;;;;5066893;28;20426;-87
2022/12/06 07:36:08;;;;;;;68.00;23.35;;;1.40;99.90;;;;;;5056552;28;20391;-87
2022/12/06 07:38:34;;;;;;;75.43;25.52;;;1.40;99.90;;;;;;5072905;28;20655;-88
2022/12/06 07:46:34;;;;;;;67.07;25.35;;;1.40;99.90;;;;;;5080867;28;20032;-88
2022/12/06 07:48:59;;;;;;;75.28;26.10;;;1.30;99.90;;;;;;5067184;28;20444;-88
2022/12/06 07:51:25;;;;;;;72.10;27.25;;;1.30;99.90;;;;;;5071992;28;20273;-87
2022/12/06 07:53:51;;;;;;;73.47;27.05;;;1.30;99.90;;;;;;5056075;28;20035;-88
2022/12/06 07:56:16;;;;;;;74.25;25.80;;;1.30;99.90;;;;;;5057056;28;20122;-89
2022/12/06 07:58:42;;;;;;;67.97;26.75;;;1.30;99.90;;;;;;5068359;28;20036;-88
2022/12/06 08:01:07;;;;;;;75.10;26.58;;;1.30;99.90;;;;;;5058672;28;20037;-87
2022/12/06 08:03:33;;;;;;;79.43;27.55;;;1.30;99.90;;;;;;5070369;28;20029;-88
2022/12/06 08:05:59;;;;;;;72.03;26.92;;;1.30;99.90;;;;;;5052666;28;20062;-88
2022/12/06 08:08:25;;;;;;;88.70;29.98;;;1.30;99.90;;;;;;5053428;28;20023;-88
2022/12/06 08:10:50;;;;;;;81.20;29.48;;;1.30;99.90;;;;;;5052327;28;20020;-88
2022/12/06 08:13:16;;;;;;;80.20;31.23;;;1.30;99.90;;;;;;5066385;28;20487;-88
2022/12/06 08:15:47;;;;;;;76.85;31.05;;;1.30;99.90;;;;;;5050129;28;20123;-88
2022/12/06 08:18:22;;;;;;;84.07;31.77;;;1.20;99.90;;;;;;5072910;28;20532;-88
2022/12/06 08:21:00;;;;;;;84.40;31.00;;;1.20;99.90;;;;;;5054510;28;20060;-88
2022/12/06 08:23:26;;;;;;;95.75;32.67;;;1.20;99.90;;;;;;5066713;28;20149;-87
2022/12/06 08:26:00;;;;;;;96.70;33.20;;;1.30;99.90;;;;;;5056448;28;20049;-87
2022/12/06 08:28:27;;;;;;;101.88;34.13;;;1.30;99.90;;;;;;5054726;28;20067;-88
2022/12/06 08:30:56;;;;;;;96.75;37.45;;;1.30;99.90;;;;;;5072743;28;20033;-87
2022/12/06 08:33:22;;;;;;;100.07;34.38;;;1.30;99.90;;;;;;5060157;28;20036;-87
2022/12/06 08:35:49;;;;;;;112.40;38.38;;;1.20;99.90;;;;;;5071326;28;20047;-87
2022/12/06 08:38:15;;;;;;;121.22;41.38;;;1.20;99.90;;;;;;5060038;28;20029;-87
2022/12/06 08:40:41;;;;;;;96.72;33.88;;;1.20;99.90;;;;;;5065539;28;20050;-87
2022/12/06 08:43:07;;;;;;;109.50;36.05;;;1.20;99.90;;;;;;5066757;28;20029;-87
2022/12/06 08:45:33;;;;;;;109.85;35.90;;;1.20;99.90;;;;;;5072928;28;20028;-87
2022/12/06 08:47:59;;;;;;;121.95;40.55;;;1.30;99.90;;;;;;5079155;28;20159;-88
2022/12/06 08:50:25;;;;;;;124.35;39.70;;;1.30;99.90;;;;;;5064016;28;20161;-86
2022/12/06 08:52:51;;;;;;;118.03;41.20;;;1.30;99.90;;;;;;5070892;28;20044;-88
2022/12/06 08:55:16;;;;;;;124.40;41.28;;;1.30;99.90;;;;;;5062618;28;20486;-88
2022/12/06 08:57:42;;;;;;;118.78;39.67;;;1.20;99.90;;;;;;5081490;28;20067;-87
2022/12/06 09:00:09;;;;;;;124.53;43.13;;;1.20;99.90;;;;;;5066416;28;20511;-88
2022/12/06 09:02:38;;;;;;;107.47;34.63;;;1.20;99.90;;;;;;5072584;28;20090;-88
2022/12/06 09:05:04;;;;;;;115.43;34.00;;;1.30;99.90;;;;;;5081960;28;20100;-88
2022/12/06 09:07:30;;;;;;;105.20;34.13;;;1.30;99.90;;;;;;5066492;28;20039;-87
2022/12/06 09:09:56;;;;;;;95.07;30.98;;;1.30;99.90;;;;;;5070171;28;20077;-87
2022/12/06 09:12:22;;;;;;;93.20;30.23;;;1.30;99.90;;;;;;5053379;28;20025;-87
2022/12/06 09:18:35;;;;;;;94.43;29.65;;;1.30;99.90;;;;;;5064386;28;20043;-88
2022/12/06 09:21:09;;;;;;;101.55;33.33;;;1.30;99.90;;;;;;5052252;28;20419;-88
2022/12/06 09:23:36;;;;;;;110.85;35.40;;;1.30;99.90;;;;;;5080650;28;20033;-88
2022/12/06 09:26:03;;;;;;;89.80;30.13;;;1.30;99.90;;;;;;5062730;28;20032;-85
2022/12/06 09:28:29;;;;;;;99.57;34.00;;;1.40;99.90;;;;;;5051739;28;20036;-86
2022/12/06 09:30:55;;;;;;;129.35;39.20;;;1.50;99.90;;;;;;5066580;28;20039;-86
2022/12/06 09:33:21;;;;;;;118.97;40.40;;;1.50;99.90;;;;;;5070489;28;20058;-86
2022/12/06 09:35:49;;;;;;;123.75;40.60;;;1.50;99.90;;;;;;5064440;28;20483;-86
2022/12/06 09:38:15;;;;;;;128.20;40.22;;;1.50;99.90;;;;;;5071713;28;20056;-86
2022/12/06 09:41:20;;;;;;;110.97;37.20;;;1.50;99.90;;;;;;5072126;28;20028;-86
2022/12/06 09:44:12;;;;;;;135.05;43.10;;;1.50;99.90;;;;;;5040120;28;20127;-86
2022/12/06 09:46:53;;;;;;;136.88;44.95;;;1.50;99.90;;;;;;5074059;28;20365;-87
2022/12/06 09:49:31;;;;;;;155.18;52.15;;;1.50;99.90;;;;;;5071247;28;20032;-86
2022/12/06 09:52:22;;;;;;;108.60;38.45;;;1.50;99.90;;;;;;5044922;28;20040;-86
2022/12/06 09:55:22;;;;;;;82.10;33.20;;;1.50;99.90;;;;;;5065839;28;20040;-86
2022/12/06 09:57:54;;;;;;;84.47;34.08;;;1.70;99.90;;;;;;5062580;28;20120;-85
2022/12/06 10:00:22;;;;;;;86.03;34.75;;;1.70;99.90;;;;;;5066658;28;20380;-86
2022/12/06 10:03:00;;;;;;;78.07;30.17;;;1.70;99.90;;;;;;5071322;28;20036;-86
2022/12/06 10:05:53;;;;;;;71.32;28.85;;;1.70;99.90;;;;;;5061866;28;20033;-86
2022/12/06 10:08:21;;;;;;;73.63;29.70;;;1.70;99.90;;;;;;5082848;28;20094;-86
2022/12/06 10:11:06;;;;;;;73.93;31.75;;;1.80;99.90;;;;;;5064613;28;20099;-86
2022/12/06 10:14:06;;;;;;;75.50;29.50;;;1.70;99.90;;;;;;5065465;28;20039;-86
2022/12/06 10:16:40;;;;;;;79.30;33.40;;;1.80;99.90;;;;;;5060358;28;20065;-86
2022/12/06 10:19:21;;;;;;;67.55;29.73;;;1.70;99.90;;;;;;5069441;28;20297;-86
2022/12/06 10:22:08;;;;;;;66.28;30.17;;;1.80;99.90;;;;;;5054715;28;20025;-86
2022/12/06 10:24:55;;;;;;;68.57;29.13;;;1.80;99.90;;;;;;5061752;28;20032;-86
2022/12/06 10:27:37;;;;;;;61.03;26.85;;;1.70;99.90;;;;;;5054779;28;20024;-86
2022/12/06 10:30:09;;;;;;;67.43;30.45;;;1.80;99.90;;;;;;5071487;28;20673;-85
2022/12/06 10:33:10;;;;;;;63.38;28.65;;;1.70;99.90;;;;;;5070486;28;20021;-86
2022/12/06 10:35:54;;;;;;;69.72;28.88;;;1.70;99.90;;;;;;5063690;28;20130;-86
2022/12/06 10:39:17;;;;;;;63.88;28.58;;;1.60;99.90;;;;;;5065965;28;20446;-86
2022/12/06 10:41:56;;;;;;;77.50;30.42;;;1.60;99.90;;;;;;5063623;28;20035;-86
2022/12/06 10:44:47;;;;;;;58.30;26.27;;;1.60;99.90;;;;;;5072780;28;20111;-86
2022/12/06 10:47:20;;;;;;;51.83;23.65;;;1.60;99.90;;;;;;5074194;28;20028;-86
2022/12/06 10:50:17;;;;;;;56.45;24.13;;;1.50;99.90;;;;;;5074294;28;20063;-86
2022/12/06 10:52:45;;;;;;;55.15;24.25;;;1.50;99.90;;;;;;5060151;28;20033;-86
2022/12/06 10:55:17;;;;;;;50.67;23.20;;;1.50;99.90;;;;;;5067599;28;20036;-86
2022/12/06 10:57:53;;;;;;;49.35;22.95;;;1.50;99.90;;;;;;5070433;28;20032;-86
2022/12/06 11:00:23;;;;;;;56.03;26.35;;;1.50;99.90;;;;;;5054218;28;20111;-85
2022/12/06 11:03:10;;;;;;;62.95;28.13;;;1.50;99.90;;;;;;5073893;28;20046;-86
2022/12/06 11:05:52;;;;;;;43.78;20.98;;;1.50;99.90;;;;;;5066853;28;20487;-86
2022/12/06 11:08:36;;;;;;;51.13;26.50;;;1.50;99.90;;;;;;5045534;28;20477;-86
2022/12/06 11:11:05;;;;;;;39.65;19.45;;;1.50;99.90;;;;;;5067569;28;20020;-86
2022/12/06 11:13:42;;;;;;;43.30;22.00;;;1.40;99.90;;;;;;5065993;28;20029;-86
2022/12/06 11:16:20;;;;;;;36.88;18.95;;;1.50;99.90;;;;;;5073772;28;20027;-86
2022/12/06 11:18:47;;;;;;;58.42;28.25;;;1.60;99.90;;;;;;5076899;28;20040;-85
2022/12/06 11:21:36;;;;;;;46.97;22.63;;;1.60;99.90;;;;;;5058415;28;20075;-86
2022/12/06 11:24:27;;;;;;;74.97;29.15;;;1.60;99.90;;;;;;5079473;28;20064;-86
2022/12/06 11:26:59;;;;;;;52.90;24.90;;;1.60;99.90;;;;;;5040158;28;20045;-85
2022/12/06 11:29:25;;;;;;;74.55;31.65;;;1.60;99.90;;;;;;5065837;28;20579;-86
2022/12/06 11:31:58;;;;;;;79.50;30.88;;;1.50;99.90;;;;;;5071399;28;20060;-86
2022/12/06 11:34:32;;;;;;;78.13;33.60;;;1.40;99.90;;;;;;5078315;28;20369;-85
2022/12/06 11:37:00;;;;;;;63.20;28.45;;;1.40;99.90;;;;;;5065926;28;20021;-86
2022/12/06 11:39:27;;;;;;;83.15;35.58;;;1.40;99.90;;;;;;5068181;28;20078;-85
2022/12/06 11:41:56;;;;;;;79.25;32.25;;;1.40;99.90;;;;;;5073046;28;20030;-86
2022/12/06 11:44:41;;;;;;;54.08;25.73;;;1.40;99.90;;;;;;5074358;28;20024;-85
2022/12/06 11:47:13;;;;;;;60.08;26.15;;;1.40;99.90;;;;;;5072458;28;20039;-86
2022/12/06 11:49:42;;;;;;;74.15;31.67;;;1.50;99.90;;;;;;5058397;28;20031;-85
2022/12/06 11:52:17;;;;;;;133.15;50.72;;;1.50;99.90;;;;;;5059700;28;20075;-86
2022/12/06 11:54:50;;;;;;;123.72;51.90;;;1.40;99.90;;;;;;5063244;28;20037;-85
2022/12/06 11:57:32;;;;;;;152.55;45.15;;;1.40;99.90;;;;;;5066388;28;20032;-86
2022/12/06 12:00:16;;;;;;;106.25;34.33;;;1.40;99.90;;;;;;5068145;28;20525;-85
2022/12/06 12:02:45;;;;;;;153.68;52.53;;;1.40;99.90;;;;;;5066885;28;20740;-86
2022/12/06 12:05:18;;;;;;;102.82;37.55;;;1.50;99.90;;;;;;5053264;28;20481;-86
2022/12/06 12:08:07;;;;;;;63.53;30.15;;;1.50;99.90;;;;;;5041387;28;20025;-86
2022/12/06 12:10:35;;;;;;;101.80;41.25;;;1.50;99.90;;;;;;5060267;28;20033;-86
2022/12/06 12:16:00;;;;;;;70.00;34.35;;;1.50;99.90;;;;;;5064668;28;20048;-86
2022/12/06 12:18:30;;;;;;;55.78;26.10;;;1.50;99.90;;;;;;5070213;28;20349;-86
2022/12/06 12:20:57;;;;;;;45.88;24.58;;;1.40;99.90;;;;;;5072125;28;20098;-87
2022/12/06 12:23:37;;;;;;;48.05;24.60;;;1.40;99.90;;;;;;5078345;28;20027;-86
2022/12/06 12:26:18;;;;;;;89.28;38.25;;;1.50;99.90;;;;;;5076404;28;20086;-85
2022/12/06 12:29:04;;;;;;;57.00;28.17;;;1.50;99.90;;;;;;5047855;28;20035;-85
2022/12/06 12:31:30;;;;;;;76.85;33.95;;;1.50;99.90;;;;;;5082063;28;20087;-86
2022/12/06 12:34:31;;;;;;;62.58;27.83;;;1.50;99.90;;;;;;5064573;28;20032;-86
2022/12/06 12:37:00;;;;;;;80.85;34.30;;;1.50;99.90;;;;;;5004894;28;20038;-86
2022/12/06 12:39:52;;;;;;;60.63;26.85;;;1.50;99.90;;;;;;5058551;28;20443;-85
2022/12/06 12:42:30;;;;;;;68.22;29.60;;;1.50;99.90;;;;;;5070126;28;20040;-86
2022/12/06 12:44:59;;;;;;;42.33;23.05;;;1.60;99.90;;;;;;5075008;28;20037;-85
2022/12/06 12:47:25;;;;;;;48.95;23.33;;;1.70;99.90;;;;;;5071311;28;20074;-85
2022/12/06 12:50:00;;;;;;;59.40;28.42;;;1.70;99.90;;;;;;5071602;28;20028;-86
2022/12/06 12:52:39;;;;;;;41.85;21.73;;;1.70;99.90;;;;;;5055286;28;20032;-86
2022/12/06 12:55:17;;;;;;;50.70;26.30;;;1.70;99.90;;;;;;5049744;28;20036;-86
2022/12/06 12:57:45;;;;;;;54.70;26.92;;;1.70;99.90;;;;;;5078498;28;20032;-86
2022/12/06 13:00:17;;;;;;;37.22;20.52;;;1.70;99.90;;;;;;5070973;28;20032;-86
2022/12/06 13:02:48;;;;;;;44.38;23.67;;;1.70;99.90;;;;;;5072624;28;20043;-86
2022/12/06 13:05:18;;;;;;;43.97;23.55;;;1.70;99.90;;;;;;5081532;28;20134;-87
2022/12/06 13:07:46;;;;;;;47.80;24.88;;;1.70;99.90;;;;;;5060924;28;20112;-87
2022/12/06 13:10:38;;;;;;;38.58;21.88;;;1.70;99.90;;;;;;5065786;28;20125;-86
2022/12/06 13:13:13;;;;;;;38.70;21.45;;;1.70;99.90;;;;;;5062251;28;20043;-85
2022/12/06 13:15:47;;;;;;;34.97;19.92;;;1.80;99.90;;;;;;5051509;28;20033;-85
2022/12/06 13:18:28;;;;;;;55.03;27.70;;;1.80;99.90;;;;;;5082971;28;20063;-86
2022/12/06 13:20:58;;;;;;;39.85;20.75;;;1.80;99.90;;;;;;5079462;28;20046;-85
2022/12/06 13:23:27;;;;;;;44.45;22.20;;;1.80;99.90;;;;;;5083415;28;20028;-87
2022/12/06 13:26:30;;;;;;;42.03;20.48;;;1.70;99.90;;;;;;5080139;28;20059;-86
2022/12/06 13:29:52;;;;;;;36.05;19.60;;;1.70;99.90;;;;;;5075897;28;20082;-87
2022/12/06 13:32:40;;;;;;;32.78;18.77;;;1.70;99.90;;;;;;5064881;28;20043;-87